Latest METAR for ESKM

Raw:

2020/10/20 01:50 ESKM 200150Z AUTO 29002KT 9999 NCD M04/M04 Q1017

Decoded:
Siljan / Mora, Sweden (ESKM) 60-58N 014-31E
Oct 19, 2020 - 09:50 PM EDT / 2020.10.20 0150 UTC
Wind: from the WNW (290 degrees) at 2 MPH (2 KT):0
Visibility: greater than 7 mile(s):0
Temperature: 24 F (-4 C)
Dew Point: 24 F (-4 C)
Relative Humidity: 100%
Pressure (altimeter): 30.03 in. Hg (1017 hPa)
ob: ESKM 200150Z AUTO 29002KT 9999 NCD M04/M04 Q1017
cycle: 2

Back